Terminal Aerodrome Forecast
Issued by NWS Sioux Falls, SD

Home | Current Version | Previous Version | Graphics & Text | Print | Product List | Glossary Off
Versions: 1 2 3 4 5 6 7 8 9 10 11 12 13 14

000
FTUS43 KFSD 201720
TAFFSD
TAF
KFSD 201720Z 2018/2118 18020G31KT P6SM FEW250
     FM210200 18016G22KT P6SM BKN250
     FM210900 18015G22KT P6SM VCTS OVC040CB
     FM211400 21012KT P6SM -SHRA OVC025
     FM211700 28013G21KT 6SM -SHRA BKN025=

USA.gov is the U.S. government's official web portal to all federal, state and local government web resources and services.